Scholes International At Galveston Airport
KGLS : now visible

Airfield :











YOU CAN JOIN US ON...

 
LOGIN :

Register | Disclaimer

   EN    FR    IT 

 









Legend :    VFR   Marginal VFR   IFR   Intensive IFR   Very Intensive IFR
Visi :
Ceiling :
>= 8 km
>= 3000ft
5 to 8 km
1000 to 3000 ft
1500m to 5 km
500 to 1000 ft
800 to 1500m
200 to 500 ft
< 800m
< 200 ft
Symbols :   Thunderstorms  Fog  Heavy snow  Heavy precipitations  Wind > 20 kt






- Airport Elevation : 6 ft
- IATA code : GLS


KGLS - Scholes International At Galveston

CURRENT METAR :
  • 010052Z AUTO 36013KT 10SM CLR 22/12 A2997 RMK AO2 SLP149 T02220117

EXPIRED METARs :
  • 312352Z AUTO 36014G20KT 10SM CLR 23/12 A2996 RMK AO2 SLP144 T02330122 10256 20233 53004
  • 312252Z AUTO 36013KT 10SM CLR 24/13 A2995 RMK AO2 SLP141 T02440133

TAF KGLS
Valid from the 01 at 00:00 until the 02 at 00:00 UTC


312320Z 0100/0124 36014KT P6SM SKC
FM010600 03012KT P6SM FEW250
FM011200 06013KT P6SM SCT250
FM011700 10014KT P6SM SCT250
FM012100 13010KT P6SM SCT250



MET'MAP, your aeronautical weather chart ! - Copyright ORBIFLY December 2007 - Disclaimer

ORBIFLY MET'MAP TEAM :

Programming & Development : Alexandra Zaïnal
Concept & original design : Baudouin d'Aumeries
Assistance for programming : Marc-Olivier Méhu
Technical & hardware support : Manuel Goepfert

Contact : metmap@orbifly.com




SOURCES & CREDITS :

   NOAA       Earth
Advisory